Time;durP1;ratioP1;P1;durP2;ratioP2;P2;SDS_P1;SDS_P2;PMS_P1;PMS_P2;Temp;Humidity;BMP_temperature;BMP_pressure;BME280_temperature;BME280_humidity;BME280_pressure;Samples;Min_cycle;Max_cycle;Signal;HPM_P1;HPM_P2
2021/03/15 00:00:22;;;;;;;9.60;2.63;;;6.70;93.50;;;;;;5039594;28;20171;-88
2021/03/15 00:02:51;;;;;;;9.47;2.80;;;6.70;93.50;;;;;;5039252;28;20112;-88
2021/03/15 00:05:17;;;;;;;11.97;3.10;;;6.70;93.80;;;;;;5039067;28;20021;-89
2021/03/15 00:07:43;;;;;;;12.63;4.40;;;6.70;93.70;;;;;;5039294;28;20066;-90
2021/03/15 00:10:10;;;;;;;19.10;4.33;;;6.70;93.90;;;;;;5038938;28;20119;-91
2021/03/15 00:12:38;;;;;;;11.57;3.90;;;6.60;93.80;;;;;;5039173;28;20385;-92
2021/03/15 00:15:05;;;;;;;12.93;4.23;;;6.70;93.90;;;;;;5022820;28;20074;-91
2021/03/15 00:17:31;;;;;;;14.07;3.90;;;6.70;94.30;;;;;;5024435;28;20017;-90
2021/03/15 00:19:56;;;;;;;11.67;3.73;;;6.70;94.40;;;;;;5028323;28;20064;-90
2021/03/15 00:22:22;;;;;;;13.40;4.07;;;6.70;94.50;;;;;;5040793;28;20029;-89
2021/03/15 00:24:50;;;;;;;13.73;4.07;;;6.70;94.30;;;;;;5039981;28;20500;-88
2021/03/15 00:27:16;;;;;;;13.27;3.60;;;6.60;94.40;;;;;;5050196;28;20055;-90
2021/03/15 00:29:45;;;;;;;14.60;3.70;;;6.60;94.80;;;;;;5056386;28;20025;-89
2021/03/15 00:32:10;;;;;;;12.53;4.13;;;6.60;94.80;;;;;;5061595;28;20035;-89
2021/03/15 00:34:36;;;;;;;14.90;5.73;;;6.50;94.90;;;;;;5057670;28;20128;-92
2021/03/15 00:37:02;;;;;;;14.13;3.97;;;6.50;95.20;;;;;;5056920;28;20096;-89
2021/03/15 00:39:31;;;;;;;13.87;4.57;;;6.50;95.30;;;;;;5055724;28;20112;-89
2021/03/15 00:41:59;;;;;;;8.83;4.57;;;6.50;95.60;;;;;;5056298;28;20024;-92
2021/03/15 00:44:27;;;;;;;15.07;4.93;;;6.40;95.70;;;;;;5039402;28;20029;-91
2021/03/15 00:46:53;;;;;;;11.73;4.67;;;6.30;95.70;;;;;;5022573;28;20135;-91
2021/03/15 00:49:19;;;;;;;11.47;4.47;;;6.30;96.00;;;;;;5039695;28;20071;-90
2021/03/15 00:51:44;;;;;;;12.87;4.30;;;6.30;96.10;;;;;;5022138;28;20029;-92
2021/03/15 00:54:10;;;;;;;10.93;3.93;;;6.30;96.20;;;;;;5055112;28;20025;-90
2021/03/15 00:56:36;;;;;;;13.73;4.67;;;6.30;96.30;;;;;;5055061;28;20059;-93
2021/03/15 00:59:04;;;;;;;13.63;4.13;;;6.20;96.30;;;;;;5039332;28;20025;-92
2021/03/15 01:02:00;;;;;;;14.20;4.07;;;6.20;96.40;;;;;;5045893;28;20103;-91
2021/03/15 01:04:26;;;;;;;17.73;4.97;;;6.10;96.40;;;;;;5026684;28;20045;-93
2021/03/15 01:06:52;;;;;;;8.70;3.60;;;6.20;96.50;;;;;;5039122;28;20036;-90
2021/03/15 01:09:20;;;;;;;13.70;4.77;;;6.20;96.50;;;;;;5055139;28;20015;-91
2021/03/15 01:11:55;;;;;;;12.43;5.23;;;6.10;96.60;;;;;;5054856;28;20060;-92
2021/03/15 01:14:21;;;;;;;13.20;4.20;;;6.20;96.60;;;;;;5056334;28;20032;-89
2021/03/15 01:16:47;;;;;;;10.93;4.60;;;6.20;96.70;;;;;;5037827;28;20037;-88
2021/03/15 01:22:35;;;;;;;16.30;5.20;;;6.10;96.90;;;;;;5055699;28;20060;-89
2021/03/15 01:25:09;;;;;;;16.23;5.60;;;6.10;96.90;;;;;;5054384;28;20032;-89
2021/03/15 01:31:00;;;;;;;11.70;4.83;;;6.10;96.90;;;;;;4976356;28;20085;-89
2021/03/15 01:33:28;;;;;;;10.63;4.53;;;6.10;97.10;;;;;;4960331;28;20429;-89
2021/03/15 01:35:56;;;;;;;9.90;4.73;;;6.10;97.10;;;;;;5022712;28;20025;-90
2021/03/15 01:38:22;;;;;;;17.53;5.17;;;6.10;97.20;;;;;;5056490;28;20086;-91
2021/03/15 01:41:17;;;;;;;12.93;4.73;;;6.10;97.20;;;;;;5056202;28;20096;-90
2021/03/15 01:43:42;;;;;;;11.02;5.10;;;6.10;97.20;;;;;;5056404;28;20029;-93
2021/03/15 01:46:08;;;;;;;11.30;4.83;;;6.20;97.30;;;;;;5064085;28;20035;-91
2021/03/15 01:48:34;;;;;;;12.33;5.47;;;6.10;97.20;;;;;;5075186;28;20043;-92
2021/03/15 01:51:00;;;;;;;11.53;5.27;;;6.10;97.30;;;;;;5042504;28;20080;-93
2021/03/15 01:53:26;;;;;;;11.10;5.10;;;6.30;97.20;;;;;;5060530;28;20021;-94
2021/03/15 01:55:53;;;;;;;14.50;4.90;;;6.10;97.10;;;;;;5060486;28;20056;-93
2021/03/15 01:58:21;;;;;;;14.47;4.87;;;6.10;97.20;;;;;;5059285;28;20075;-91
2021/03/15 02:00:49;;;;;;;13.30;4.97;;;6.20;97.20;;;;;;5076782;28;20005;-92
2021/03/15 02:03:20;;;;;;;12.00;4.50;;;6.10;97.20;;;;;;5065170;28;20029;-92
2021/03/15 02:05:46;;;;;;;16.17;5.83;;;6.20;97.10;;;;;;5040936;28;20065;-93
2021/03/15 02:08:12;;;;;;;13.70;4.97;;;6.20;97.20;;;;;;5039567;28;20029;-92
2021/03/15 02:10:41;;;;;;;13.40;4.83;;;6.20;97.20;;;;;;5040916;28;20017;-91
2021/03/15 02:13:31;;;;;;;12.50;4.67;;;6.20;97.20;;;;;;5057461;28;20196;-91
2021/03/15 02:16:26;;;;;;;15.43;5.10;;;6.20;97.20;;;;;;5038790;28;20036;-91
2021/03/15 02:19:19;;;;;;;;;;;6.20;97.20;;;;;;5004619;28;20040;-91
2021/03/15 02:22:18;;;;;;;11.20;4.97;;;6.20;97.20;;;;;;5037696;28;20054;-92
2021/03/15 02:24:56;;;;;;;12.73;4.80;;;6.20;97.30;;;;;;5038106;28;20039;-91
2021/03/15 02:27:51;;;;;;;10.73;4.57;;;6.20;97.40;;;;;;5047739;28;20052;-91
2021/03/15 02:30:43;;;;;;;16.77;4.73;;;6.20;97.30;;;;;;5046674;28;20029;-92
2021/03/15 02:33:58;;;;;;;9.67;4.30;;;6.10;97.30;;;;;;5038551;28;20026;-94
2021/03/15 02:39:10;;;;;;;14.07;4.93;;;6.10;97.50;;;;;;5090752;27;20378;-77
2021/03/15 02:41:37;;;;;;;12.87;5.43;;;6.10;97.50;;;;;;5090814;28;20390;-77
2021/03/15 02:44:05;;;;;;;17.77;6.20;;;6.20;97.60;;;;;;5090763;28;20486;-73
2021/03/15 02:46:33;;;;;;;14.83;4.83;;;6.10;97.60;;;;;;5090502;28;20032;-73
2021/03/15 02:49:03;;;;;;;11.33;4.87;;;6.10;97.50;;;;;;5090542;28;20024;-73
2021/03/15 02:51:32;;;;;;;9.67;3.73;;;6.10;97.50;;;;;;5090685;28;20032;-72
2021/03/15 02:54:01;;;;;;;9.77;4.70;;;6.10;97.40;;;;;;5090517;28;20388;-72
2021/03/15 02:56:32;;;;;;;8.70;3.97;;;6.20;97.40;;;;;;5090314;28;20111;-73
2021/03/15 02:58:59;;;;;;;10.37;3.97;;;6.20;97.30;;;;;;5090288;28;20032;-73
2021/03/15 03:01:26;;;;;;;10.60;4.07;;;6.20;97.30;;;;;;5090379;28;20514;-73
2021/03/15 03:03:54;;;;;;;9.80;3.77;;;6.20;97.20;;;;;;5090316;28;20044;-73
2021/03/15 03:06:28;;;;;;;9.00;4.40;;;6.20;97.10;;;;;;5090274;28;20036;-73
2021/03/15 03:08:56;;;;;;;9.93;4.13;;;6.20;97.10;;;;;;5090173;28;20090;-73
2021/03/15 03:11:26;;;;;;;10.00;3.73;;;6.30;97.10;;;;;;5088690;28;20499;-73
2021/03/15 03:13:52;;;;;;;11.07;4.20;;;6.30;97.10;;;;;;5090340;28;20030;-73
2021/03/15 03:16:19;;;;;;;12.07;4.43;;;6.30;97.10;;;;;;5088808;28;20040;-73
2021/03/15 03:18:49;;;;;;;8.73;3.87;;;6.20;97.00;;;;;;5089819;28;20115;-72
2021/03/15 03:21:16;;;;;;;9.70;3.73;;;6.40;97.00;;;;;;5089844;28;20043;-73
2021/03/15 03:23:43;;;;;;;10.90;4.37;;;6.30;97.00;;;;;;5090008;28;20497;-73
2021/03/15 03:26:09;;;;;;;12.87;4.47;;;6.30;97.00;;;;;;5089879;28;20107;-73
2021/03/15 03:28:36;;;;;;;9.37;3.07;;;6.30;96.90;;;;;;5089975;28;20044;-73
2021/03/15 03:31:05;;;;;;;11.60;3.80;;;6.20;96.90;;;;;;5071639;28;20479;-73
2021/03/15 03:33:31;;;;;;;7.50;3.40;;;6.30;97.00;;;;;;5088551;28;20395;-73
2021/03/15 03:35:57;;;;;;;10.43;4.40;;;6.20;96.90;;;;;;5089956;28;20064;-73
2021/03/15 03:38:23;;;;;;;11.37;4.70;;;6.30;97.00;;;;;;5071164;28;20068;-73
2021/03/15 03:40:48;;;;;;;15.53;5.67;;;6.30;97.00;;;;;;5088323;28;20032;-73
2021/03/15 03:43:14;;;;;;;11.83;5.10;;;6.20;97.10;;;;;;5089766;28;20029;-73
2021/03/15 03:45:40;;;;;;;14.83;6.30;;;6.20;97.10;;;;;;5088241;28;20073;-73
2021/03/15 03:48:07;;;;;;;12.10;5.77;;;6.20;97.10;;;;;;5089501;28;20032;-73
2021/03/15 03:50:34;;;;;;;12.57;5.97;;;6.20;97.10;;;;;;5057598;28;20032;-73
2021/03/15 03:53:16;;;;;;;10.77;5.00;;;6.20;97.10;;;;;;5074794;28;20076;-73
2021/03/15 03:55:42;;;;;;;16.50;5.83;;;6.20;97.40;;;;;;5074534;28;20059;-73
2021/03/15 03:58:12;;;;;;;18.33;6.63;;;6.20;97.20;;;;;;5074470;28;20074;-73
2021/03/15 04:00:38;;;;;;;14.47;5.77;;;6.20;97.20;;;;;;5074599;28;20491;-73
2021/03/15 04:03:11;;;;;;;14.50;6.40;;;6.30;97.30;;;;;;5057761;28;20025;-74
2021/03/15 04:05:38;;;;;;;19.70;7.23;;;6.20;97.30;;;;;;5074328;28;20033;-73
2021/03/15 04:08:08;;;;;;;19.90;7.57;;;6.20;97.30;;;;;;5074329;28;20369;-74
2021/03/15 04:10:35;;;;;;;19.33;7.30;;;6.20;97.40;;;;;;5075601;28;20032;-74
2021/03/15 04:13:15;;;;;;;17.50;8.17;;;6.30;97.40;;;;;;5075455;28;20028;-73
2021/03/15 04:15:45;;;;;;;16.97;7.53;;;6.30;97.40;;;;;;5075487;28;20040;-80
2021/03/15 04:18:12;;;;;;;19.67;7.60;;;6.30;97.40;;;;;;5073980;28;20039;-77
2021/03/15 04:20:40;;;;;;;19.30;8.03;;;6.30;97.40;;;;;;5073872;28;20029;-77
2021/03/15 04:23:10;;;;;;;15.57;7.87;;;6.30;97.50;;;;;;5074205;28;20040;-76
2021/03/15 04:25:38;;;;;;;23.63;7.67;;;6.30;97.50;;;;;;5074020;28;20025;-76
2021/03/15 04:28:06;;;;;;;19.03;8.73;;;6.40;97.50;;;;;;5075353;28;20029;-77
2021/03/15 04:30:32;;;;;;;18.20;7.87;;;6.30;97.50;;;;;;5075240;28;20043;-76
2021/03/15 04:32:58;;;;;;;22.93;9.03;;;6.30;97.50;;;;;;5073931;28;20090;-76
2021/03/15 04:35:32;;;;;;;27.50;8.43;;;6.30;97.50;;;;;;5073806;28;20115;-77
2021/03/15 04:37:59;;;;;;;25.70;9.00;;;6.30;97.50;;;;;;5074687;28;20053;-76
2021/03/15 04:40:27;;;;;;;23.10;10.33;;;6.30;97.50;;;;;;5073920;28;20021;-73
2021/03/15 04:42:59;;;;;;;23.80;9.10;;;6.30;97.40;;;;;;5074925;28;20480;-73
2021/03/15 04:45:30;;;;;;;20.93;8.17;;;6.30;97.40;;;;;;5074789;28;20023;-73
2021/03/15 04:47:59;;;;;;;28.57;9.63;;;6.30;97.40;;;;;;5074810;28;20476;-73
2021/03/15 04:50:26;;;;;;;26.57;8.77;;;6.40;97.40;;;;;;5074697;28;20081;-77
2021/03/15 04:52:52;;;;;;;23.10;9.00;;;6.30;97.40;;;;;;5074852;28;20055;-77
2021/03/15 04:55:18;;;;;;;25.60;9.43;;;6.30;97.30;;;;;;5073502;28;20032;-77
2021/03/15 04:57:46;;;;;;;18.13;8.57;;;6.30;97.30;;;;;;5074536;28;20032;-78
2021/03/15 05:00:14;;;;;;;29.50;8.90;;;6.30;97.60;;;;;;5072954;28;20016;-77
2021/03/15 05:02:42;;;;;;;20.03;7.37;;;6.30;97.20;;;;;;5072001;28;20029;-77
2021/03/15 05:05:09;;;;;;;17.50;7.87;;;6.30;97.10;;;;;;5074034;28;20024;-77
2021/03/15 05:07:38;;;;;;;19.70;7.70;;;6.20;97.10;;;;;;5073001;28;20510;-77
2021/03/15 05:10:05;;;;;;;20.20;6.63;;;6.30;97.10;;;;;;5073381;28;20024;-77
2021/03/15 05:12:32;;;;;;;20.93;8.40;;;6.20;97.00;;;;;;5073166;28;20399;-77
2021/03/15 05:14:58;;;;;;;20.97;8.20;;;6.20;97.00;;;;;;5072521;28;20078;-77
2021/03/15 05:17:24;;;;;;;22.27;7.67;;;6.20;97.00;;;;;;5072987;28;20086;-77
2021/03/15 05:19:50;;;;;;;20.47;8.00;;;6.10;97.00;;;;;;5056314;28;20068;-77
2021/03/15 05:22:16;;;;;;;21.67;7.47;;;6.10;97.00;;;;;;5074306;28;20019;-77
2021/03/15 05:24:43;;;;;;;14.43;6.93;;;6.10;97.00;;;;;;5072875;28;20024;-77
2021/03/15 05:27:09;;;;;;;18.33;7.77;;;6.10;97.10;;;;;;5073120;28;20032;-77
2021/03/15 05:29:37;;;;;;;19.00;7.53;;;6.10;97.10;;;;;;5072697;28;20375;-77
2021/03/15 05:32:05;;;;;;;18.07;6.73;;;6.10;97.10;;;;;;5072743;28;20426;-77
2021/03/15 05:34:32;;;;;;;19.10;7.57;;;6.10;97.10;;;;;;5056262;28;20025;-77
2021/03/15 05:37:02;;;;;;;15.07;6.23;;;6.10;97.10;;;;;;5073692;28;20549;-77
2021/03/15 05:39:29;;;;;;;18.60;6.73;;;6.10;97.10;;;;;;5073839;28;20017;-77
2021/03/15 05:41:57;;;;;;;15.57;6.27;;;6.20;97.10;;;;;;5073802;28;20099;-77
2021/03/15 05:45:07;;;;;;;20.17;6.67;;;6.10;97.00;;;;;;5072659;28;20113;-73
2021/03/15 05:48:16;;;;;;;22.17;6.70;;;6.10;97.10;;;;;;5073378;28;20055;-73
2021/03/15 05:51:16;;;;;;;20.07;7.33;;;6.10;97.00;;;;;;5073473;28;20021;-73
2021/03/15 05:53:52;;;;;;;18.63;6.13;;;6.10;97.00;;;;;;5072381;28;20032;-73
2021/03/15 05:56:44;;;;;;;26.07;8.00;;;6.10;97.00;;;;;;5073497;28;20025;-73
2021/03/15 05:59:42;;;;;;;16.03;7.17;;;6.00;97.20;;;;;;5069516;28;20040;-73
2021/03/15 06:02:59;;;;;;;22.97;7.00;;;6.00;96.90;;;;;;5072149;28;20028;-73
2021/03/15 06:05:29;;;;;;;19.07;6.07;;;6.00;96.80;;;;;;5063489;28;20036;-73
2021/03/15 06:08:10;;;;;;;14.77;5.63;;;5.90;96.70;;;;;;5073341;28;20055;-73
2021/03/15 06:10:36;;;;;;;14.80;6.33;;;5.90;96.70;;;;;;5051942;28;20079;-73
2021/03/15 06:13:04;;;;;;;19.57;6.30;;;5.90;96.70;;;;;;5051681;28;20032;-73
2021/03/15 06:15:37;;;;;;;17.70;6.50;;;5.80;96.80;;;;;;5051411;28;20149;-73
2021/03/15 06:18:04;;;;;;;15.77;6.13;;;5.90;96.90;;;;;;5052914;28;20028;-73
2021/03/15 06:20:31;;;;;;;21.03;6.87;;;5.90;96.90;;;;;;5060612;28;20052;-73
2021/03/15 06:22:59;;;;;;;22.47;6.27;;;6.00;97.00;;;;;;5073130;28;20063;-73
2021/03/15 06:25:26;;;;;;;19.10;6.40;;;6.00;97.10;;;;;;5071695;28;20028;-73
2021/03/15 06:27:53;;;;;;;19.30;6.80;;;6.00;97.10;;;;;;5071306;28;20036;-74
2021/03/15 06:30:20;;;;;;;15.97;7.10;;;6.00;97.10;;;;;;5071830;28;20040;-74
2021/03/15 06:32:50;;;;;;;14.83;5.87;;;6.00;97.10;;;;;;5054634;28;20032;-73
2021/03/15 06:35:17;;;;;;;22.03;6.13;;;6.10;97.10;;;;;;5072160;28;20033;-74
2021/03/15 06:37:43;;;;;;;15.87;6.53;;;6.10;97.10;;;;;;5071305;28;20055;-73
2021/03/15 06:40:12;;;;;;;22.30;6.97;;;6.10;97.10;;;;;;5069029;28;20021;-73
2021/03/15 06:42:38;;;;;;;16.70;6.10;;;6.10;97.20;;;;;;5061548;28;20021;-73
2021/03/15 06:45:05;;;;;;;16.90;6.80;;;6.20;97.20;;;;;;5061015;28;20029;-73
2021/03/15 06:47:31;;;;;;;15.97;7.23;;;6.20;97.20;;;;;;5045020;28;20389;-74
2021/03/15 06:49:57;;;;;;;26.77;7.43;;;6.30;97.20;;;;;;5051877;28;20044;-73
2021/03/15 06:52:22;;;;;;;22.10;6.33;;;6.30;97.10;;;;;;5034908;28;20083;-73
2021/03/15 06:54:59;;;;;;;20.43;8.37;;;6.30;97.20;;;;;;5052738;28;20427;-73
2021/03/15 06:57:25;;;;;;;18.70;6.37;;;6.40;97.20;;;;;;5051501;28;20025;-74
2021/03/15 06:59:54;;;;;;;19.20;6.63;;;6.40;97.20;;;;;;5052557;28;20028;-74
2021/03/15 07:02:30;;;;;;;18.83;6.07;;;6.30;97.10;;;;;;5052370;28;20064;-73
2021/03/15 07:05:08;;;;;;;23.23;7.27;;;6.50;97.10;;;;;;5052308;28;20025;-74
2021/03/15 07:07:34;;;;;;;21.37;6.60;;;6.50;97.00;;;;;;5052383;28;20491;-73
2021/03/15 07:10:00;;;;;;;20.70;7.03;;;6.50;96.90;;;;;;5051368;28;20045;-74
2021/03/15 07:12:26;;;;;;;21.97;5.97;;;6.50;96.80;;;;;;5051369;28;20033;-74
2021/03/15 07:14:54;;;;;;;17.97;5.83;;;6.60;96.70;;;;;;5052387;28;20108;-74
2021/03/15 07:17:21;;;;;;;16.60;5.60;;;6.60;96.70;;;;;;5051194;28;20028;-73
2021/03/15 07:19:47;;;;;;;18.57;6.30;;;6.70;96.60;;;;;;5051258;28;20033;-73
2021/03/15 07:22:26;;;;;;;17.23;5.67;;;6.70;96.60;;;;;;5067082;28;20043;-73
2021/03/15 07:25:16;;;;;;;16.27;5.80;;;6.70;96.50;;;;;;5074286;28;20052;-73
2021/03/15 07:27:44;;;;;;;23.57;5.47;;;6.70;96.40;;;;;;5074366;28;20441;-72
2021/03/15 07:30:37;;;;;;;22.50;5.50;;;6.80;96.50;;;;;;5064341;28;20037;-74
2021/03/15 07:33:06;;;;;;;17.03;4.60;;;6.80;96.10;;;;;;5054982;28;20031;-73
2021/03/15 07:35:34;;;;;;;16.57;4.10;;;6.80;96.10;;;;;;5054775;28;20102;-74
2021/03/15 07:38:00;;;;;;;21.10;5.10;;;6.80;95.90;;;;;;5055790;28;20504;-73
2021/03/15 07:40:40;;;;;;;14.63;4.47;;;6.90;95.90;;;;;;5038241;28;20059;-74
2021/03/15 07:43:15;;;;;;;20.27;5.60;;;6.90;95.70;;;;;;5054627;28;20028;-73
2021/03/15 07:45:48;;;;;;;18.80;4.43;;;6.90;95.50;;;;;;5055942;28;20047;-73
2021/03/15 07:48:19;;;;;;;18.00;4.63;;;6.90;95.30;;;;;;5055990;28;20040;-74
2021/03/15 07:51:08;;;;;;;21.93;4.80;;;6.80;95.10;;;;;;5055860;28;20503;-74
2021/03/15 07:53:43;;;;;;;16.23;5.33;;;6.80;94.90;;;;;;5054636;28;20021;-74
2021/03/15 07:56:19;;;;;;;23.07;4.33;;;6.80;94.80;;;;;;5055947;28;20033;-74
2021/03/15 07:58:46;;;;;;;16.73;3.67;;;6.80;94.80;;;;;;5037817;28;20029;-74
2021/03/15 08:01:12;;;;;;;17.23;3.40;;;6.80;94.70;;;;;;5038113;28;20094;-74
2021/03/15 08:03:40;;;;;;;16.17;3.63;;;6.90;94.50;;;;;;5054313;28;20029;-74
2021/03/15 08:06:08;;;;;;;15.93;3.23;;;7.00;94.50;;;;;;5055509;28;20025;-74
2021/03/15 08:08:34;;;;;;;17.13;2.37;;;7.10;94.60;;;;;;5055449;28;20036;-76
2021/03/15 08:11:01;;;;;;;19.97;2.53;;;7.20;93.80;;;;;;5044246;28;20090;-75
2021/03/15 08:13:34;;;;;;;12.67;2.30;;;7.20;93.20;;;;;;5046690;28;20037;-74
2021/03/15 08:16:00;;;;;;;14.18;1.90;;;7.30;92.90;;;;;;5062585;28;20033;-76
2021/03/15 08:18:28;;;;;;;20.43;3.07;;;7.20;92.10;;;;;;5043485;28;20036;-76
2021/03/15 08:21:05;;;;;;;13.63;2.63;;;7.20;91.50;;;;;;5055368;28;20033;-74
2021/03/15 08:23:34;;;;;;;18.03;2.67;;;7.20;91.20;;;;;;5061580;28;20083;-75
2021/03/15 08:26:13;;;;;;;17.97;2.63;;;7.20;91.40;;;;;;5070296;28;20025;-76
2021/03/15 08:28:41;;;;;;;10.37;1.40;;;7.30;91.90;;;;;;5075096;28;20012;-75
2021/03/15 08:31:26;;;;;;;11.67;1.63;;;7.40;90.30;;;;;;5073827;28;20479;-74
2021/03/15 08:33:53;;;;;;;11.67;1.37;;;7.40;90.30;;;;;;5075213;28;20029;-74
2021/03/15 08:36:19;;;;;;;10.70;1.40;;;7.50;90.70;;;;;;5074108;28;20036;-74
2021/03/15 08:38:44;;;;;;;14.27;1.40;;;7.50;90.10;;;;;;5074829;28;20056;-79
2021/03/15 08:41:26;;;;;;;15.07;1.60;;;7.60;90.00;;;;;;5075111;28;20021;-78
2021/03/15 08:43:52;;;;;;;10.97;1.50;;;7.80;88.20;;;;;;5073909;28;20033;-79
2021/03/15 08:46:24;;;;;;;17.03;1.40;;;7.80;86.90;;;;;;5040655;28;20099;-78
2021/03/15 08:48:58;;;;;;;17.27;1.90;;;7.80;85.60;;;;;;5072080;28;20039;-78
2021/03/15 08:51:32;;;;;;;9.93;1.33;;;7.80;86.70;;;;;;5074763;28;20376;-77
2021/03/15 08:54:08;;;;;;;9.97;1.30;;;7.90;85.80;;;;;;5074218;28;20495;-79
2021/03/15 08:56:44;;;;;;;11.77;1.50;;;7.90;85.10;;;;;;5073203;28;20077;-77
2021/03/15 08:59:10;;;;;;;13.53;1.00;;;7.90;85.00;;;;;;5074243;28;20033;-79
2021/03/15 09:01:57;;;;;;;13.87;1.63;;;7.90;83.70;;;;;;5062723;28;20032;-78
2021/03/15 09:04:33;;;;;;;17.43;1.63;;;7.90;84.10;;;;;;5053032;28;20025;-78
2021/03/15 09:07:20;;;;;;;9.90;1.20;;;8.00;83.70;;;;;;5053036;28;20025;-77
2021/03/15 09:09:45;;;;;;;18.07;1.97;;;8.20;82.80;;;;;;5054037;28;20029;-80
2021/03/15 09:12:17;;;;;;;13.10;1.17;;;8.20;80.50;;;;;;5053114;28;20534;-79
2021/03/15 09:14:53;;;;;;;17.27;1.50;;;8.30;79.80;;;;;;5053023;28;20025;-78
2021/03/15 09:17:19;;;;;;;10.57;1.17;;;8.30;80.50;;;;;;5036266;28;20033;-79
2021/03/15 09:19:47;;;;;;;13.43;1.63;;;8.30;81.10;;;;;;5053092;28;20033;-79
2021/03/15 09:22:30;;;;;;;10.33;1.20;;;8.40;79.20;;;;;;5054108;28;20033;-79
2021/03/15 09:24:59;;;;;;;10.80;1.40;;;8.50;79.80;;;;;;5054307;28;20025;-78
2021/03/15 09:27:39;;;;;;;13.47;1.07;;;8.40;79.10;;;;;;5052995;28;20115;-77
2021/03/15 09:30:08;;;;;;;9.23;1.43;;;8.40;79.00;;;;;;5052865;28;20029;-78
2021/03/15 09:32:45;;;;;;;13.30;1.03;;;8.40;79.70;;;;;;5054025;28;20099;-77
2021/03/15 09:35:35;;;;;;;9.30;1.27;;;8.40;79.90;;;;;;5061940;28;20082;-76
2021/03/15 09:38:06;;;;;;;10.10;1.23;;;8.60;80.90;;;;;;5062972;28;20124;-75
2021/03/15 09:40:36;;;;;;;9.97;0.87;;;8.70;77.80;;;;;;5062167;28;20025;-76
2021/03/15 09:43:02;;;;;;;12.10;1.20;;;8.80;77.60;;;;;;5064846;28;20522;-75
2021/03/15 09:45:36;;;;;;;11.27;1.53;;;8.80;77.00;;;;;;5072318;28;20103;-77
2021/03/15 09:48:14;;;;;;;10.30;0.98;;;8.80;76.40;;;;;;5071681;28;20048;-78
2021/03/15 09:50:45;;;;;;;7.60;0.83;;;8.90;76.80;;;;;;5072267;28;20101;-75
2021/03/15 09:53:13;;;;;;;9.93;1.03;;;9.00;74.60;;;;;;5072295;28;20033;-76
2021/03/15 09:55:40;;;;;;;9.53;0.80;;;9.00;73.20;;;;;;5055784;28;20032;-76
2021/03/15 09:58:17;;;;;;;12.30;1.30;;;9.00;73.30;;;;;;5073503;28;20551;-77
2021/03/15 10:00:44;;;;;;;9.37;1.13;;;9.00;74.10;;;;;;5072143;28;20021;-77
2021/03/15 10:03:20;;;;;;;10.33;1.50;;;9.00;74.40;;;;;;5072981;28;20028;-75
2021/03/15 10:05:47;;;;;;;14.53;1.00;;;9.00;74.50;;;;;;5072190;28;20029;-75
2021/03/15 10:08:13;;;;;;;13.80;0.97;;;9.10;75.80;;;;;;5072973;28;20086;-75
2021/03/15 10:10:39;;;;;;;8.97;1.07;;;9.10;75.90;;;;;;5072061;28;20032;-76
2021/03/15 10:13:06;;;;;;;8.27;1.00;;;9.10;76.70;;;;;;5072002;28;20032;-75
2021/03/15 10:15:32;;;;;;;7.93;1.00;;;9.10;76.90;;;;;;5071807;28;20028;-74
2021/03/15 10:17:58;;;;;;;9.10;1.30;;;9.20;76.70;;;;;;5071864;28;20453;-75
2021/03/15 10:20:26;;;;;;;7.47;1.00;;;9.40;77.70;;;;;;5058817;28;20120;-74
2021/03/15 10:22:52;;;;;;;10.93;1.00;;;9.80;77.00;;;;;;5052842;28;20107;-79
2021/03/15 10:25:18;;;;;;;8.03;1.30;;;10.10;74.80;;;;;;5051178;28;20544;-79
2021/03/15 10:27:58;;;;;;;12.63;1.63;;;10.40;73.70;;;;;;5057412;28;20074;-82
2021/03/15 10:30:33;;;;;;;9.18;1.13;;;10.70;72.10;;;;;;5072975;28;20056;-79
2021/03/15 10:32:59;;;;;;;10.30;1.08;;;11.00;69.30;;;;;;5071409;28;20021;-80
2021/03/15 10:35:32;;;;;;;10.02;1.08;;;11.10;69.20;;;;;;5071536;28;20025;-79
2021/03/15 10:38:02;;;;;;;6.57;1.02;;;11.30;69.40;;;;;;5054125;28;20411;-79
2021/03/15 10:40:29;;;;;;;5.85;0.80;;;11.30;68.70;;;;;;5072918;28;20480;-80
2021/03/15 10:42:56;;;;;;;7.57;0.90;;;11.20;68.20;;;;;;5071876;28;20025;-79
2021/03/15 10:45:24;;;;;;;9.20;0.90;;;11.10;66.60;;;;;;5038125;28;20028;-81
2021/03/15 10:47:49;;;;;;;9.33;0.87;;;10.80;66.20;;;;;;5054954;28;20033;-80
2021/03/15 10:50:41;;;;;;;7.33;0.90;;;10.60;67.70;;;;;;5055158;28;20498;-74
2021/03/15 10:53:12;;;;;;;7.13;0.70;;;10.40;68.30;;;;;;5072837;28;20103;-75
2021/03/15 10:55:38;;;;;;;12.40;1.03;;;10.40;68.30;;;;;;5055095;28;20202;-74
2021/03/15 10:58:12;;;;;;;6.83;0.80;;;10.30;69.50;;;;;;5051186;28;20539;-75
2021/03/15 11:00:40;;;;;;;10.65;1.05;;;10.80;70.20;;;;;;5056008;28;20032;-77
2021/03/15 11:03:07;;;;;;;13.07;0.85;;;11.30;68.50;;;;;;5055388;28;20017;-74
2021/03/15 11:05:33;;;;;;;6.97;0.80;;;11.90;66.40;;;;;;5056490;28;20017;-76
2021/03/15 11:07:59;;;;;;;5.43;0.80;;;12.50;64.90;;;;;;5046215;28;20388;-78
2021/03/15 11:10:28;;;;;;;7.68;0.80;;;12.70;62.20;;;;;;5054893;28;20039;-77
2021/03/15 11:12:56;;;;;;;8.60;1.38;;;13.00;60.60;;;;;;5071914;28;20068;-75
2021/03/15 11:15:35;;;;;;;4.93;0.60;;;13.50;59.50;;;;;;5056403;28;20048;-77
2021/03/15 11:18:19;;;;;;;4.82;0.70;;;13.60;55.90;;;;;;5071821;28;20036;-76
2021/03/15 11:20:55;;;;;;;6.30;0.95;;;13.70;56.80;;;;;;5071642;28;20021;-76
2021/03/15 11:23:35;;;;;;;5.15;0.57;;;13.90;55.70;;;;;;5054976;28;20033;-75
2021/03/15 11:26:05;;;;;;;8.88;0.88;;;13.70;54.10;;;;;;5071412;28;20028;-75
2021/03/15 11:28:34;;;;;;;5.75;0.73;;;13.30;54.30;;;;;;5071081;28;20025;-76
2021/03/15 11:31:00;;;;;;;11.82;0.75;;;12.80;55.90;;;;;;5071690;28;20477;-75
2021/03/15 11:33:30;;;;;;;8.05;0.93;;;12.30;57.80;;;;;;5054818;28;20033;-76
2021/03/15 11:36:01;;;;;;;9.40;1.30;;;11.80;60.50;;;;;;5054817;28;20053;-76
2021/03/15 11:38:27;;;;;;;8.38;0.98;;;11.50;61.50;;;;;;5056369;28;20126;-74
2021/03/15 11:40:54;;;;;;;7.70;1.27;;;11.40;62.10;;;;;;5065954;28;20024;-75
2021/03/15 11:43:20;;;;;;;15.57;1.95;;;11.50;63.80;;;;;;5057941;28;20028;-76
2021/03/15 11:45:46;;;;;;;11.73;0.93;;;12.00;63.40;;;;;;5075794;28;20107;-74
2021/03/15 11:48:12;;;;;;;11.20;1.40;;;12.30;62.60;;;;;;5072380;28;20102;-75
2021/03/15 11:50:38;;;;;;;14.38;1.50;;;12.70;62.10;;;;;;5054509;28;20029;-76
2021/03/15 11:53:06;;;;;;;12.93;1.73;;;12.90;59.70;;;;;;5067131;28;20475;-77
2021/03/15 11:55:32;;;;;;;15.90;1.73;;;13.30;60.30;;;;;;5069607;28;20090;-75
2021/03/15 11:57:59;;;;;;;13.65;1.33;;;13.70;58.90;;;;;;5074232;28;20027;-79
2021/03/15 12:00:26;;;;;;;10.35;1.30;;;13.90;57.00;;;;;;5057651;28;20447;-76
2021/03/15 12:02:52;;;;;;;8.35;1.10;;;13.80;57.10;;;;;;5074049;28;20028;-76
2021/03/15 12:05:19;;;;;;;12.13;1.35;;;14.10;57.10;;;;;;5075278;28;20484;-75
2021/03/15 12:07:45;;;;;;;11.55;0.82;;;14.10;56.40;;;;;;5074029;28;20021;-77
2021/03/15 12:10:13;;;;;;;7.18;1.08;;;14.00;57.30;;;;;;5054799;28;20037;-76
2021/03/15 12:12:39;;;;;;;9.32;1.38;;;13.70;58.00;;;;;;5072000;28;20020;-76
2021/03/15 12:15:08;;;;;;;11.93;1.20;;;13.20;60.10;;;;;;5074952;28;20127;-74
2021/03/15 12:17:34;;;;;;;11.25;1.85;;;12.60;61.40;;;;;;5075087;28;20487;-77
2021/03/15 12:20:01;;;;;;;10.70;1.38;;;12.50;64.10;;;;;;5073751;28;20056;-76
2021/03/15 12:22:27;;;;;;;13.25;2.08;;;12.60;63.60;;;;;;5074989;28;20025;-74
2021/03/15 12:24:52;;;;;;;10.02;1.10;;;12.50;63.60;;;;;;5070508;28;20384;-76
2021/03/15 12:27:18;;;;;;;14.80;2.17;;;12.40;64.20;;;;;;5067970;28;20033;-77
2021/03/15 12:29:44;;;;;;;11.82;1.38;;;12.10;65.10;;;;;;5073353;28;20032;-76
2021/03/15 12:32:10;;;;;;;18.33;1.42;;;11.90;64.60;;;;;;5073836;28;20451;-76
2021/03/15 12:34:36;;;;;;;10.60;1.23;;;11.70;65.30;;;;;;5073576;28;20059;-76
2021/03/15 12:37:03;;;;;;;13.70;1.60;;;11.70;66.80;;;;;;5040096;28;20107;-74
2021/03/15 12:39:29;;;;;;;12.65;1.48;;;11.80;66.30;;;;;;5074494;28;20059;-75
2021/03/15 12:41:56;;;;;;;10.68;1.67;;;11.90;66.20;;;;;;5073011;28;20032;-77
2021/03/15 12:44:21;;;;;;;10.68;1.33;;;12.00;66.30;;;;;;5052920;28;20029;-75
2021/03/15 12:46:47;;;;;;;7.65;1.13;;;12.10;65.00;;;;;;5053350;28;20090;-74
2021/03/15 12:49:13;;;;;;;10.70;1.38;;;12.00;64.70;;;;;;5063562;28;20384;-73
2021/03/15 12:51:39;;;;;;;7.47;0.87;;;11.80;65.40;;;;;;5073870;28;20044;-77
2021/03/15 12:54:05;;;;;;;14.37;1.07;;;11.60;65.40;;;;;;5074263;28;20089;-76
2021/03/15 12:56:38;;;;;;;6.70;0.83;;;11.20;68.10;;;;;;5056312;28;20079;-76
2021/03/15 12:59:04;;;;;;;7.90;0.93;;;10.90;70.20;;;;;;5073896;28;20056;-75
2021/03/15 13:01:30;;;;;;;6.87;1.07;;;10.60;71.70;;;;;;5073937;28;20482;-73
2021/03/15 13:03:56;;;;;;;10.77;1.00;;;10.30;73.80;;;;;;5039899;28;20052;-74
2021/03/15 13:06:21;;;;;;;8.73;0.80;;;10.10;74.90;;;;;;5056614;28;20460;-75
2021/03/15 13:08:49;;;;;;;8.37;1.10;;;9.90;74.90;;;;;;5056414;28;20047;-74
2021/03/15 13:11:16;;;;;;;9.43;0.70;;;9.70;75.10;;;;;;5056513;28;20028;-73
2021/03/15 13:13:42;;;;;;;5.37;0.70;;;9.50;76.70;;;;;;5074150;28;20040;-74